sensor_id;sensor_type;location;lat;lon;timestamp;P1;durP1;ratioP1;P2;durP2;ratioP2
68214;SDS011;55036;52.138;5.236;2023-03-23T00:01:14;11.00;;;5.00;;
68214;SDS011;55036;52.138;5.236;2023-03-23T00:03:44;8.98;;;5.25;;
68214;SDS011;55036;52.138;5.236;2023-03-23T00:06:11;8.93;;;4.88;;
68214;SDS011;55036;52.138;5.236;2023-03-23T00:08:42;10.13;;;4.80;;
68214;SDS011;55036;52.138;5.236;2023-03-23T00:13:42;8.80;;;4.30;;
68214;SDS011;55036;52.138;5.236;2023-03-23T00:16:09;7.65;;;4.75;;
68214;SDS011;55036;52.138;5.236;2023-03-23T00:18:43;7.72;;;4.53;;
68214;SDS011;55036;52.138;5.236;2023-03-23T00:21:10;12.05;;;4.85;;
68214;SDS011;55036;52.138;5.236;2023-03-23T00:23:35;11.55;;;4.32;;
68214;SDS011;55036;52.138;5.236;2023-03-23T00:26:01;9.50;;;4.55;;
68214;SDS011;55036;52.138;5.236;2023-03-23T00:28:27;6.47;;;4.22;;
68214;SDS011;55036;52.138;5.236;2023-03-23T00:30:56;6.43;;;4.15;;
68214;SDS011;55036;52.138;5.236;2023-03-23T00:33:24;10.48;;;4.93;;
68214;SDS011;55036;52.138;5.236;2023-03-23T00:35:51;9.95;;;3.95;;
68214;SDS011;55036;52.138;5.236;2023-03-23T00:38:18;8.77;;;4.43;;
68214;SDS011;55036;52.138;5.236;2023-03-23T00:40:44;7.50;;;4.30;;
68214;SDS011;55036;52.138;5.236;2023-03-23T00:43:12;7.07;;;4.13;;
68214;SDS011;55036;52.138;5.236;2023-03-23T00:45:39;8.13;;;4.28;;
68214;SDS011;55036;52.138;5.236;2023-03-23T00:48:04;7.47;;;3.95;;
68214;SDS011;55036;52.138;5.236;2023-03-23T00:50:30;9.57;;;4.00;;
68214;SDS011;55036;52.138;5.236;2023-03-23T00:52:56;7.90;;;3.60;;
68214;SDS011;55036;52.138;5.236;2023-03-23T00:55:23;7.80;;;3.90;;
68214;SDS011;55036;52.138;5.236;2023-03-23T00:57:50;6.55;;;3.85;;
68214;SDS011;55036;52.138;5.236;2023-03-23T01:00:16;7.03;;;3.70;;
68214;SDS011;55036;52.138;5.236;2023-03-23T01:02:44;6.45;;;3.70;;
68214;SDS011;55036;52.138;5.236;2023-03-23T01:05:10;7.28;;;3.80;;
68214;SDS011;55036;52.138;5.236;2023-03-23T01:07:36;9.15;;;3.30;;
68214;SDS011;55036;52.138;5.236;2023-03-23T01:10:03;7.15;;;3.30;;
68214;SDS011;55036;52.138;5.236;2023-03-23T01:12:29;8.05;;;3.40;;
68214;SDS011;55036;52.138;5.236;2023-03-23T01:14:55;9.05;;;3.53;;
68214;SDS011;55036;52.138;5.236;2023-03-23T01:17:21;7.20;;;3.60;;
68214;SDS011;55036;52.138;5.236;2023-03-23T01:19:47;7.70;;;3.33;;
68214;SDS011;55036;52.138;5.236;2023-03-23T01:22:12;5.57;;;3.20;;
68214;SDS011;55036;52.138;5.236;2023-03-23T01:24:38;5.22;;;3.30;;
68214;SDS011;55036;52.138;5.236;2023-03-23T01:27:04;5.90;;;3.35;;
68214;SDS011;55036;52.138;5.236;2023-03-23T01:29:34;4.78;;;2.88;;
68214;SDS011;55036;52.138;5.236;2023-03-23T01:32:01;6.38;;;3.05;;
68214;SDS011;55036;52.138;5.236;2023-03-23T01:34:27;5.68;;;3.08;;
68214;SDS011;55036;52.138;5.236;2023-03-23T01:36:52;5.40;;;3.17;;
68214;SDS011;55036;52.138;5.236;2023-03-23T01:39:18;6.05;;;3.20;;
68214;SDS011;55036;52.138;5.236;2023-03-23T01:41:44;4.70;;;2.67;;
68214;SDS011;55036;52.138;5.236;2023-03-23T01:46:42;6.88;;;3.10;;
68214;SDS011;55036;52.138;5.236;2023-03-23T01:49:10;5.88;;;3.10;;
68214;SDS011;55036;52.138;5.236;2023-03-23T01:51:40;8.15;;;3.42;;
68214;SDS011;55036;52.138;5.236;2023-03-23T01:54:11;4.93;;;2.80;;
68214;SDS011;55036;52.138;5.236;2023-03-23T01:56:40;4.68;;;3.00;;
68214;SDS011;55036;52.138;5.236;2023-03-23T01:59:10;6.05;;;2.85;;
68214;SDS011;55036;52.138;5.236;2023-03-23T02:01:38;7.90;;;3.53;;
68214;SDS011;55036;52.138;5.236;2023-03-23T02:06:37;8.07;;;3.22;;
68214;SDS011;55036;52.138;5.236;2023-03-23T02:09:02;5.40;;;3.30;;
68214;SDS011;55036;52.138;5.236;2023-03-23T02:11:31;5.43;;;3.10;;
68214;SDS011;55036;52.138;5.236;2023-03-23T02:13:57;6.82;;;3.15;;
68214;SDS011;55036;52.138;5.236;2023-03-23T02:36:38;4.72;;;2.80;;
68214;SDS011;55036;52.138;5.236;2023-03-23T02:39:14;8.27;;;2.83;;
68214;SDS011;55036;52.138;5.236;2023-03-23T02:41:48;4.95;;;2.33;;
68214;SDS011;55036;52.138;5.236;2023-03-23T02:44:22;6.00;;;2.88;;
68214;SDS011;55036;52.138;5.236;2023-03-23T02:46:50;6.38;;;2.55;;
68214;SDS011;55036;52.138;5.236;2023-03-23T02:49:18;6.28;;;2.50;;
68214;SDS011;55036;52.138;5.236;2023-03-23T02:51:45;4.18;;;2.63;;
68214;SDS011;55036;52.138;5.236;2023-03-23T02:54:13;5.93;;;3.08;;
68214;SDS011;55036;52.138;5.236;2023-03-23T02:56:41;6.43;;;2.58;;
68214;SDS011;55036;52.138;5.236;2023-03-23T02:59:08;4.13;;;2.20;;
68214;SDS011;55036;52.138;5.236;2023-03-23T03:04:01;4.28;;;2.25;;
68214;SDS011;55036;52.138;5.236;2023-03-23T03:09:40;4.97;;;2.03;;
68214;SDS011;55036;52.138;5.236;2023-03-23T03:12:13;6.15;;;2.83;;
68214;SDS011;55036;52.138;5.236;2023-03-23T03:15:17;4.10;;;2.00;;
68214;SDS011;55036;52.138;5.236;2023-03-23T03:17:59;6.13;;;2.72;;
68214;SDS011;55036;52.138;5.236;2023-03-23T03:20:30;6.97;;;2.08;;
68214;SDS011;55036;52.138;5.236;2023-03-23T03:22:59;5.32;;;2.03;;
68214;SDS011;55036;52.138;5.236;2023-03-23T03:25:26;4.85;;;2.05;;
68214;SDS011;55036;52.138;5.236;2023-03-23T03:27:53;3.20;;;1.83;;
68214;SDS011;55036;52.138;5.236;2023-03-23T03:30:21;6.32;;;2.13;;
68214;SDS011;55036;52.138;5.236;2023-03-23T03:32:52;4.78;;;1.80;;
68214;SDS011;55036;52.138;5.236;2023-03-23T03:35:22;5.80;;;1.75;;
68214;SDS011;55036;52.138;5.236;2023-03-23T03:37:49;5.40;;;2.00;;
68214;SDS011;55036;52.138;5.236;2023-03-23T03:40:17;8.45;;;2.33;;
68214;SDS011;55036;52.138;5.236;2023-03-23T03:42:44;8.73;;;1.88;;
68214;SDS011;55036;52.138;5.236;2023-03-23T03:45:15;7.38;;;2.22;;
68214;SDS011;55036;52.138;5.236;2023-03-23T03:47:42;5.40;;;2.13;;
68214;SDS011;55036;52.138;5.236;2023-03-23T03:50:08;2.80;;;1.40;;
68214;SDS011;55036;52.138;5.236;2023-03-23T03:52:34;5.63;;;1.98;;
68214;SDS011;55036;52.138;5.236;2023-03-23T03:55:00;8.85;;;2.00;;
68214;SDS011;55036;52.138;5.236;2023-03-23T03:57:26;7.53;;;1.90;;
68214;SDS011;55036;52.138;5.236;2023-03-23T03:59:52;6.10;;;1.80;;
68214;SDS011;55036;52.138;5.236;2023-03-23T04:02:17;5.13;;;1.92;;
68214;SDS011;55036;52.138;5.236;2023-03-23T04:04:48;5.47;;;1.90;;
68214;SDS011;55036;52.138;5.236;2023-03-23T04:07:15;6.40;;;2.13;;
68214;SDS011;55036;52.138;5.236;2023-03-23T04:09:42;3.15;;;1.40;;
68214;SDS011;55036;52.138;5.236;2023-03-23T04:12:10;4.28;;;2.10;;
68214;SDS011;55036;52.138;5.236;2023-03-23T04:14:36;4.75;;;1.80;;
68214;SDS011;55036;52.138;5.236;2023-03-23T04:17:02;7.13;;;1.80;;
68214;SDS011;55036;52.138;5.236;2023-03-23T04:19:27;4.80;;;1.75;;
68214;SDS011;55036;52.138;5.236;2023-03-23T04:21:53;7.57;;;2.55;;
68214;SDS011;55036;52.138;5.236;2023-03-23T04:24:20;4.03;;;1.63;;
68214;SDS011;55036;52.138;5.236;2023-03-23T04:26:47;4.53;;;1.50;;
68214;SDS011;55036;52.138;5.236;2023-03-23T04:29:13;4.80;;;1.40;;
68214;SDS011;55036;52.138;5.236;2023-03-23T04:31:40;6.68;;;1.83;;
68214;SDS011;55036;52.138;5.236;2023-03-23T04:34:10;5.50;;;1.80;;
68214;SDS011;55036;52.138;5.236;2023-03-23T04:36:38;5.82;;;1.70;;
68214;SDS011;55036;52.138;5.236;2023-03-23T04:39:05;7.18;;;1.40;;
68214;SDS011;55036;52.138;5.236;2023-03-23T04:41:34;3.88;;;1.15;;
68214;SDS011;55036;52.138;5.236;2023-03-23T04:44:01;11.88;;;2.30;;
68214;SDS011;55036;52.138;5.236;2023-03-23T04:46:27;8.43;;;1.52;;
68214;SDS011;55036;52.138;5.236;2023-03-23T04:48:56;6.60;;;1.58;;
68214;SDS011;55036;52.138;5.236;2023-03-23T04:51:26;6.10;;;1.50;;
68214;SDS011;55036;52.138;5.236;2023-03-23T04:53:54;5.28;;;1.38;;
68214;SDS011;55036;52.138;5.236;2023-03-23T04:56:21;6.72;;;1.85;;
68214;SDS011;55036;52.138;5.236;2023-03-23T04:58:47;5.55;;;1.63;;
68214;SDS011;55036;52.138;5.236;2023-03-23T05:01:13;7.88;;;1.63;;
68214;SDS011;55036;52.138;5.236;2023-03-23T05:03:42;5.57;;;1.52;;
68214;SDS011;55036;52.138;5.236;2023-03-23T05:06:08;6.95;;;1.77;;
68214;SDS011;55036;52.138;5.236;2023-03-23T05:08:34;3.70;;;1.50;;
68214;SDS011;55036;52.138;5.236;2023-03-23T05:11:04;9.25;;;1.67;;
68214;SDS011;55036;52.138;5.236;2023-03-23T05:13:31;8.20;;;1.70;;
68214;SDS011;55036;52.138;5.236;2023-03-23T05:15:57;9.90;;;1.88;;
68214;SDS011;55036;52.138;5.236;2023-03-23T05:18:27;7.97;;;1.73;;
68214;SDS011;55036;52.138;5.236;2023-03-23T05:20:54;5.45;;;1.52;;
68214;SDS011;55036;52.138;5.236;2023-03-23T05:23:19;14.68;;;2.35;;
68214;SDS011;55036;52.138;5.236;2023-03-23T05:25:53;11.63;;;2.03;;
68214;SDS011;55036;52.138;5.236;2023-03-23T05:28:19;6.65;;;1.80;;
68214;SDS011;55036;52.138;5.236;2023-03-23T05:30:46;6.53;;;1.50;;
68214;SDS011;55036;52.138;5.236;2023-03-23T05:33:13;6.13;;;1.48;;
68214;SDS011;55036;52.138;5.236;2023-03-23T05:35:39;6.20;;;1.85;;
68214;SDS011;55036;52.138;5.236;2023-03-23T05:38:04;6.28;;;1.63;;
68214;SDS011;55036;52.138;5.236;2023-03-23T05:40:30;12.95;;;2.70;;
68214;SDS011;55036;52.138;5.236;2023-03-23T05:42:56;13.18;;;2.10;;
68214;SDS011;55036;52.138;5.236;2023-03-23T05:45:24;8.77;;;2.22;;
68214;SDS011;55036;52.138;5.236;2023-03-23T05:47:51;9.35;;;2.05;;
68214;SDS011;55036;52.138;5.236;2023-03-23T05:50:17;7.00;;;2.00;;
68214;SDS011;55036;52.138;5.236;2023-03-23T05:52:43;11.73;;;2.95;;
68214;SDS011;55036;52.138;5.236;2023-03-23T05:55:09;11.18;;;3.00;;
68214;SDS011;55036;52.138;5.236;2023-03-23T05:57:36;12.13;;;2.70;;
68214;SDS011;55036;52.138;5.236;2023-03-23T06:00:02;9.55;;;2.47;;
68214;SDS011;55036;52.138;5.236;2023-03-23T06:02:45;13.35;;;2.75;;
68214;SDS011;55036;52.138;5.236;2023-03-23T06:05:12;15.00;;;2.72;;
68214;SDS011;55036;52.138;5.236;2023-03-23T06:07:38;5.78;;;2.50;;
68214;SDS011;55036;52.138;5.236;2023-03-23T06:10:05;6.57;;;1.98;;
68214;SDS011;55036;52.138;5.236;2023-03-23T06:12:32;11.23;;;2.30;;
68214;SDS011;55036;52.138;5.236;2023-03-23T06:14:57;10.35;;;2.30;;
68214;SDS011;55036;52.138;5.236;2023-03-23T06:17:24;13.05;;;2.65;;
68214;SDS011;55036;52.138;5.236;2023-03-23T06:19:50;10.50;;;2.53;;
68214;SDS011;55036;52.138;5.236;2023-03-23T06:22:16;10.07;;;2.30;;
68214;SDS011;55036;52.138;5.236;2023-03-23T06:24:42;5.85;;;1.70;;
68214;SDS011;55036;52.138;5.236;2023-03-23T06:27:09;6.40;;;2.58;;
68214;SDS011;55036;52.138;5.236;2023-03-23T06:29:35;9.45;;;2.92;;
68214;SDS011;55036;52.138;5.236;2023-03-23T06:32:02;12.88;;;2.78;;
68214;SDS011;55036;52.138;5.236;2023-03-23T06:34:29;13.45;;;2.80;;
68214;SDS011;55036;52.138;5.236;2023-03-23T06:36:55;11.15;;;2.67;;
68214;SDS011;55036;52.138;5.236;2023-03-23T06:39:21;10.25;;;2.75;;
68214;SDS011;55036;52.138;5.236;2023-03-23T06:41:47;10.50;;;2.65;;
68214;SDS011;55036;52.138;5.236;2023-03-23T06:44:13;12.88;;;3.13;;
68214;SDS011;55036;52.138;5.236;2023-03-23T06:46:39;9.23;;;2.72;;
68214;SDS011;55036;52.138;5.236;2023-03-23T06:49:06;8.10;;;2.20;;
68214;SDS011;55036;52.138;5.236;2023-03-23T06:51:32;5.97;;;2.13;;
68214;SDS011;55036;52.138;5.236;2023-03-23T06:53:58;12.82;;;3.08;;
68214;SDS011;55036;52.138;5.236;2023-03-23T06:56:24;21.27;;;3.30;;
68214;SDS011;55036;52.138;5.236;2023-03-23T06:58:50;7.30;;;2.70;;
68214;SDS011;55036;52.138;5.236;2023-03-23T07:01:16;12.10;;;2.45;;
68214;SDS011;55036;52.138;5.236;2023-03-23T07:03:42;11.63;;;2.75;;
68214;SDS011;55036;52.138;5.236;2023-03-23T07:06:08;8.40;;;2.28;;
68214;SDS011;55036;52.138;5.236;2023-03-23T07:08:34;10.45;;;2.80;;
68214;SDS011;55036;52.138;5.236;2023-03-23T07:11:00;6.88;;;2.08;;
68214;SDS011;55036;52.138;5.236;2023-03-23T07:13:27;14.30;;;2.88;;
68214;SDS011;55036;52.138;5.236;2023-03-23T07:15:52;8.00;;;2.55;;
68214;SDS011;55036;52.138;5.236;2023-03-23T07:18:19;9.65;;;2.60;;
68214;SDS011;55036;52.138;5.236;2023-03-23T07:20:51;10.77;;;2.83;;
68214;SDS011;55036;52.138;5.236;2023-03-23T07:23:17;5.72;;;2.22;;
68214;SDS011;55036;52.138;5.236;2023-03-23T07:25:44;6.18;;;2.17;;
68214;SDS011;55036;52.138;5.236;2023-03-23T07:28:11;10.32;;;3.47;;
68214;SDS011;55036;52.138;5.236;2023-03-23T07:30:37;12.10;;;2.65;;
68214;SDS011;55036;52.138;5.236;2023-03-23T07:33:06;15.18;;;3.00;;
68214;SDS011;55036;52.138;5.236;2023-03-23T07:35:32;8.15;;;1.90;;
68214;SDS011;55036;52.138;5.236;2023-03-23T07:37:59;14.80;;;2.90;;
68214;SDS011;55036;52.138;5.236;2023-03-23T07:40:25;11.05;;;3.08;;
68214;SDS011;55036;52.138;5.236;2023-03-23T07:42:55;10.32;;;2.38;;
68214;SDS011;55036;52.138;5.236;2023-03-23T07:45:22;10.98;;;2.45;;
68214;SDS011;55036;52.138;5.236;2023-03-23T07:47:48;15.02;;;2.45;;
68214;SDS011;55036;52.138;5.236;2023-03-23T07:50:15;12.32;;;2.35;;
68214;SDS011;55036;52.138;5.236;2023-03-23T07:52:41;9.25;;;2.85;;
68214;SDS011;55036;52.138;5.236;2023-03-23T07:55:08;9.18;;;2.15;;
68214;SDS011;55036;52.138;5.236;2023-03-23T07:57:42;10.15;;;2.65;;
68214;SDS011;55036;52.138;5.236;2023-03-23T08:00:08;9.23;;;2.75;;
68214;SDS011;55036;52.138;5.236;2023-03-23T08:02:37;13.70;;;2.88;;
68214;SDS011;55036;52.138;5.236;2023-03-23T08:05:04;11.88;;;2.25;;
68214;SDS011;55036;52.138;5.236;2023-03-23T08:07:30;8.75;;;2.22;;
68214;SDS011;55036;52.138;5.236;2023-03-23T08:09:55;12.90;;;2.40;;
68214;SDS011;55036;52.138;5.236;2023-03-23T08:12:21;9.23;;;2.00;;
68214;SDS011;55036;52.138;5.236;2023-03-23T08:14:46;7.35;;;2.20;;
68214;SDS011;55036;52.138;5.236;2023-03-23T08:17:13;4.90;;;2.08;;
68214;SDS011;55036;52.138;5.236;2023-03-23T08:19:39;8.85;;;2.15;;
68214;SDS011;55036;52.138;5.236;2023-03-23T08:22:05;11.02;;;2.47;;
68214;SDS011;55036;52.138;5.236;2023-03-23T08:24:31;8.55;;;2.53;;
68214;SDS011;55036;52.138;5.236;2023-03-23T08:27:00;6.72;;;2.40;;
68214;SDS011;55036;52.138;5.236;2023-03-23T08:29:26;6.93;;;2.33;;
68214;SDS011;55036;52.138;5.236;2023-03-23T08:31:52;8.75;;;2.60;;
68214;SDS011;55036;52.138;5.236;2023-03-23T08:34:18;8.55;;;2.30;;
68214;SDS011;55036;52.138;5.236;2023-03-23T08:36:45;14.27;;;2.95;;
68214;SDS011;55036;52.138;5.236;2023-03-23T08:39:11;9.38;;;2.72;;
68214;SDS011;55036;52.138;5.236;2023-03-23T08:41:39;7.20;;;2.60;;
68214;SDS011;55036;52.138;5.236;2023-03-23T08:44:05;9.43;;;2.78;;
68214;SDS011;55036;52.138;5.236;2023-03-23T08:46:33;5.20;;;2.40;;
68214;SDS011;55036;52.138;5.236;2023-03-23T08:48:58;11.00;;;2.92;;
68214;SDS011;55036;52.138;5.236;2023-03-23T08:51:24;8.55;;;2.78;;
68214;SDS011;55036;52.138;5.236;2023-03-23T08:53:50;8.35;;;3.05;;
68214;SDS011;55036;52.138;5.236;2023-03-23T08:56:17;11.80;;;2.90;;
68214;SDS011;55036;52.138;5.236;2023-03-23T08:58:43;10.70;;;3.67;;
68214;SDS011;55036;52.138;5.236;2023-03-23T09:01:08;7.90;;;2.78;;
68214;SDS011;55036;52.138;5.236;2023-03-23T09:03:36;13.52;;;3.00;;
68214;SDS011;55036;52.138;5.236;2023-03-23T09:06:03;11.68;;;2.38;;
68214;SDS011;55036;52.138;5.236;2023-03-23T09:08:30;8.52;;;2.78;;
68214;SDS011;55036;52.138;5.236;2023-03-23T09:11:00;9.40;;;2.90;;
68214;SDS011;55036;52.138;5.236;2023-03-23T09:13:30;10.85;;;2.80;;
68214;SDS011;55036;52.138;5.236;2023-03-23T09:15:56;10.23;;;2.85;;
68214;SDS011;55036;52.138;5.236;2023-03-23T09:18:22;13.48;;;3.20;;
68214;SDS011;55036;52.138;5.236;2023-03-23T09:20:52;12.27;;;3.00;;
68214;SDS011;55036;52.138;5.236;2023-03-23T09:23:18;12.57;;;2.92;;
68214;SDS011;55036;52.138;5.236;2023-03-23T09:25:45;10.15;;;2.42;;
68214;SDS011;55036;52.138;5.236;2023-03-23T09:28:12;9.23;;;2.38;;
68214;SDS011;55036;52.138;5.236;2023-03-23T09:30:38;10.90;;;2.53;;
68214;SDS011;55036;52.138;5.236;2023-03-23T09:33:05;9.52;;;2.70;;
68214;SDS011;55036;52.138;5.236;2023-03-23T09:35:33;8.45;;;2.15;;
68214;SDS011;55036;52.138;5.236;2023-03-23T09:38:00;10.80;;;2.83;;
68214;SDS011;55036;52.138;5.236;2023-03-23T09:40:32;13.45;;;3.10;;
68214;SDS011;55036;52.138;5.236;2023-03-23T09:51:19;13.15;;;3.22;;
68214;SDS011;55036;52.138;5.236;2023-03-23T09:53:51;10.95;;;2.40;;
68214;SDS011;55036;52.138;5.236;2023-03-23T09:56:23;15.10;;;3.33;;
68214;SDS011;55036;52.138;5.236;2023-03-23T09:58:57;10.70;;;2.13;;
68214;SDS011;55036;52.138;5.236;2023-03-23T10:01:32;12.48;;;2.70;;
68214;SDS011;55036;52.138;5.236;2023-03-23T10:04:28;11.73;;;2.28;;
68214;SDS011;55036;52.138;5.236;2023-03-23T10:07:09;8.05;;;1.85;;
68214;SDS011;55036;52.138;5.236;2023-03-23T10:09:39;17.02;;;2.80;;
68214;SDS011;55036;52.138;5.236;2023-03-23T10:12:12;11.57;;;2.45;;
68214;SDS011;55036;52.138;5.236;2023-03-23T10:15:20;10.18;;;2.15;;
68214;SDS011;55036;52.138;5.236;2023-03-23T10:18:01;10.05;;;2.35;;
68214;SDS011;55036;52.138;5.236;2023-03-23T10:20:35;8.05;;;2.00;;
68214;SDS011;55036;52.138;5.236;2023-03-23T10:28:54;9.25;;;2.08;;
68214;SDS011;55036;52.138;5.236;2023-03-23T10:31:52;12.52;;;1.90;;
68214;SDS011;55036;52.138;5.236;2023-03-23T10:34:27;9.02;;;1.95;;
68214;SDS011;55036;52.138;5.236;2023-03-23T10:37:25;7.40;;;1.65;;
68214;SDS011;55036;52.138;5.236;2023-03-23T10:39:56;10.55;;;2.10;;
68214;SDS011;55036;52.138;5.236;2023-03-23T10:42:31;10.63;;;1.88;;
68214;SDS011;55036;52.138;5.236;2023-03-23T10:45:09;13.38;;;2.10;;
68214;SDS011;55036;52.138;5.236;2023-03-23T10:47:42;10.80;;;2.42;;
68214;SDS011;55036;52.138;5.236;2023-03-23T10:50:12;11.37;;;2.00;;
68214;SDS011;55036;52.138;5.236;2023-03-23T10:52:43;11.13;;;2.67;;
68214;SDS011;55036;52.138;5.236;2023-03-23T10:55:11;10.13;;;2.47;;
68214;SDS011;55036;52.138;5.236;2023-03-23T11:05:37;8.00;;;2.00;;
68214;SDS011;55036;52.138;5.236;2023-03-23T11:08:11;8.93;;;2.42;;
68214;SDS011;55036;52.138;5.236;2023-03-23T11:10:47;13.95;;;2.40;;
68214;SDS011;55036;52.138;5.236;2023-03-23T11:13:15;9.68;;;2.50;;
68214;SDS011;55036;52.138;5.236;2023-03-23T11:15:43;11.85;;;2.05;;
68214;SDS011;55036;52.138;5.236;2023-03-23T11:18:13;7.88;;;2.25;;
68214;SDS011;55036;52.138;5.236;2023-03-23T11:20:48;8.02;;;2.65;;
68214;SDS011;55036;52.138;5.236;2023-03-23T11:23:20;10.52;;;1.85;;
68214;SDS011;55036;52.138;5.236;2023-03-23T11:25:50;7.65;;;2.00;;
68214;SDS011;55036;52.138;5.236;2023-03-23T11:28:21;10.82;;;2.45;;
68214;SDS011;55036;52.138;5.236;2023-03-23T11:30:53;11.05;;;2.28;;
68214;SDS011;55036;52.138;5.236;2023-03-23T11:33:20;12.63;;;2.30;;
68214;SDS011;55036;52.138;5.236;2023-03-23T11:35:45;8.55;;;2.38;;
68214;SDS011;55036;52.138;5.236;2023-03-23T11:38:18;13.57;;;3.28;;
68214;SDS011;55036;52.138;5.236;2023-03-23T11:40:50;8.50;;;2.20;;
68214;SDS011;55036;52.138;5.236;2023-03-23T11:43:22;9.45;;;2.22;;
68214;SDS011;55036;52.138;5.236;2023-03-23T11:48:28;9.77;;;2.25;;
68214;SDS011;55036;52.138;5.236;2023-03-23T11:54:15;12.25;;;2.42;;
68214;SDS011;55036;52.138;5.236;2023-03-23T11:56:59;9.85;;;2.20;;
68214;SDS011;55036;52.138;5.236;2023-03-23T11:59:32;15.63;;;2.88;;
68214;SDS011;55036;52.138;5.236;2023-03-23T12:08:05;14.48;;;2.22;;
68214;SDS011;55036;52.138;5.236;2023-03-23T12:10:47;9.25;;;2.42;;
68214;SDS011;55036;52.138;5.236;2023-03-23T12:19:16;13.48;;;2.85;;
68214;SDS011;55036;52.138;5.236;2023-03-23T12:24:43;10.75;;;2.53;;
68214;SDS011;55036;52.138;5.236;2023-03-23T12:41:18;6.55;;;2.13;;
68214;SDS011;55036;52.138;5.236;2023-03-23T12:43:59;9.32;;;2.00;;
68214;SDS011;55036;52.138;5.236;2023-03-23T12:49:20;8.43;;;1.90;;
68214;SDS011;55036;52.138;5.236;2023-03-23T12:55:05;7.85;;;1.77;;
68214;SDS011;55036;52.138;5.236;2023-03-23T13:00:06;6.88;;;1.40;;
68214;SDS011;55036;52.138;5.236;2023-03-23T13:05:36;9.88;;;1.60;;
68214;SDS011;55036;52.138;5.236;2023-03-23T13:08:31;13.50;;;2.22;;
68214;SDS011;55036;52.138;5.236;2023-03-23T13:11:03;12.65;;;2.35;;
68214;SDS011;55036;52.138;5.236;2023-03-23T13:13:41;9.50;;;2.88;;
68214;SDS011;55036;52.138;5.236;2023-03-23T13:16:39;7.15;;;2.13;;
68214;SDS011;55036;52.138;5.236;2023-03-23T13:24:10;9.75;;;1.85;;
68214;SDS011;55036;52.138;5.236;2023-03-23T13:26:41;6.82;;;1.30;;
68214;SDS011;55036;52.138;5.236;2023-03-23T13:29:20;9.20;;;1.85;;
68214;SDS011;55036;52.138;5.236;2023-03-23T13:31:52;8.73;;;2.85;;
68214;SDS011;55036;52.138;5.236;2023-03-23T13:36:58;7.35;;;1.88;;
68214;SDS011;55036;52.138;5.236;2023-03-23T13:39:33;13.73;;;2.22;;
68214;SDS011;55036;52.138;5.236;2023-03-23T14:03:16;8.60;;;1.95;;
68214;SDS011;55036;52.138;5.236;2023-03-23T14:05:51;7.72;;;2.03;;
68214;SDS011;55036;52.138;5.236;2023-03-23T14:08:39;9.68;;;2.17;;
68214;SDS011;55036;52.138;5.236;2023-03-23T14:11:14;9.13;;;2.17;;
68214;SDS011;55036;52.138;5.236;2023-03-23T14:13:51;14.00;;;2.58;;
68214;SDS011;55036;52.138;5.236;2023-03-23T14:16:44;9.43;;;2.25;;
68214;SDS011;55036;52.138;5.236;2023-03-23T14:19:16;6.72;;;2.00;;
68214;SDS011;55036;52.138;5.236;2023-03-23T14:21:54;7.80;;;1.48;;
68214;SDS011;55036;52.138;5.236;2023-03-23T14:24:23;7.65;;;2.30;;
68214;SDS011;55036;52.138;5.236;2023-03-23T14:27:01;7.65;;;1.55;;
68214;SDS011;55036;52.138;5.236;2023-03-23T14:29:33;6.63;;;1.85;;
68214;SDS011;55036;52.138;5.236;2023-03-23T14:31:59;9.95;;;2.63;;
68214;SDS011;55036;52.138;5.236;2023-03-23T14:34:27;6.80;;;2.20;;
68214;SDS011;55036;52.138;5.236;2023-03-23T14:36:54;7.80;;;2.20;;
68214;SDS011;55036;52.138;5.236;2023-03-23T14:39:30;9.73;;;2.25;;
68214;SDS011;55036;52.138;5.236;2023-03-23T14:42:01;12.68;;;2.92;;
68214;SDS011;55036;52.138;5.236;2023-03-23T14:44:31;8.30;;;2.40;;
68214;SDS011;55036;52.138;5.236;2023-03-23T14:47:00;8.43;;;2.38;;
68214;SDS011;55036;52.138;5.236;2023-03-23T14:49:36;8.65;;;2.10;;
68214;SDS011;55036;52.138;5.236;2023-03-23T14:52:13;11.15;;;2.78;;
68214;SDS011;55036;52.138;5.236;2023-03-23T14:54:41;9.00;;;2.38;;
68214;SDS011;55036;52.138;5.236;2023-03-23T14:59:42;11.60;;;2.03;;
68214;SDS011;55036;52.138;5.236;2023-03-23T15:02:14;11.18;;;2.28;;
68214;SDS011;55036;52.138;5.236;2023-03-23T15:04:54;10.02;;;2.17;;
68214;SDS011;55036;52.138;5.236;2023-03-23T15:07:30;9.95;;;2.88;;
68214;SDS011;55036;52.138;5.236;2023-03-23T15:10:00;10.02;;;2.63;;
68214;SDS011;55036;52.138;5.236;2023-03-23T15:12:30;10.10;;;2.42;;
68214;SDS011;55036;52.138;5.236;2023-03-23T15:14:58;9.68;;;2.10;;
68214;SDS011;55036;52.138;5.236;2023-03-23T15:17:34;8.77;;;1.90;;
68214;SDS011;55036;52.138;5.236;2023-03-23T15:22:50;7.65;;;1.80;;
68214;SDS011;55036;52.138;5.236;2023-03-23T15:25:18;12.18;;;2.05;;
68214;SDS011;55036;52.138;5.236;2023-03-23T15:27:56;8.77;;;2.42;;
68214;SDS011;55036;52.138;5.236;2023-03-23T15:32:50;13.85;;;2.33;;
68214;SDS011;55036;52.138;5.236;2023-03-23T15:35:21;10.43;;;2.58;;
68214;SDS011;55036;52.138;5.236;2023-03-23T15:37:51;8.65;;;2.58;;
68214;SDS011;55036;52.138;5.236;2023-03-23T15:40:17;9.35;;;1.60;;
68214;SDS011;55036;52.138;5.236;2023-03-23T15:42:45;10.57;;;2.08;;
68214;SDS011;55036;52.138;5.236;2023-03-23T15:52:35;13.50;;;2.22;;
68214;SDS011;55036;52.138;5.236;2023-03-23T15:55:01;11.73;;;2.20;;
68214;SDS011;55036;52.138;5.236;2023-03-23T15:57:26;7.60;;;2.17;;
68214;SDS011;55036;52.138;5.236;2023-03-23T15:59:52;13.20;;;2.13;;
68214;SDS011;55036;52.138;5.236;2023-03-23T16:02:20;13.93;;;2.42;;
68214;SDS011;55036;52.138;5.236;2023-03-23T16:04:49;8.90;;;2.75;;
68214;SDS011;55036;52.138;5.236;2023-03-23T16:07:17;10.88;;;2.38;;
68214;SDS011;55036;52.138;5.236;2023-03-23T16:09:48;9.60;;;2.58;;
68214;SDS011;55036;52.138;5.236;2023-03-23T16:12:15;10.23;;;2.10;;
68214;SDS011;55036;52.138;5.236;2023-03-23T16:14:42;8.73;;;2.17;;
68214;SDS011;55036;52.138;5.236;2023-03-23T16:17:10;7.50;;;1.92;;
68214;SDS011;55036;52.138;5.236;2023-03-23T16:19:44;9.20;;;2.13;;
68214;SDS011;55036;52.138;5.236;2023-03-23T16:22:11;7.07;;;1.98;;
68214;SDS011;55036;52.138;5.236;2023-03-23T16:24:38;14.35;;;2.75;;
68214;SDS011;55036;52.138;5.236;2023-03-23T16:27:04;9.00;;;2.40;;
68214;SDS011;55036;52.138;5.236;2023-03-23T16:29:31;9.80;;;2.03;;
68214;SDS011;55036;52.138;5.236;2023-03-23T16:32:18;10.32;;;2.05;;
68214;SDS011;55036;52.138;5.236;2023-03-23T16:34:44;12.95;;;2.40;;
68214;SDS011;55036;52.138;5.236;2023-03-23T16:37:11;10.23;;;2.28;;
68214;SDS011;55036;52.138;5.236;2023-03-23T16:39:38;7.53;;;2.20;;
68214;SDS011;55036;52.138;5.236;2023-03-23T16:42:05;9.10;;;2.30;;
68214;SDS011;55036;52.138;5.236;2023-03-23T16:44:31;7.30;;;2.28;;
68214;SDS011;55036;52.138;5.236;2023-03-23T16:46:58;10.00;;;2.63;;
68214;SDS011;55036;52.138;5.236;2023-03-23T16:49:25;12.57;;;2.58;;
68214;SDS011;55036;52.138;5.236;2023-03-23T16:51:52;10.55;;;2.65;;
68214;SDS011;55036;52.138;5.236;2023-03-23T16:54:18;10.75;;;2.78;;
68214;SDS011;55036;52.138;5.236;2023-03-23T16:56:45;8.43;;;2.30;;
68214;SDS011;55036;52.138;5.236;2023-03-23T16:59:14;8.70;;;2.85;;
68214;SDS011;55036;52.138;5.236;2023-03-23T17:01:40;9.25;;;2.53;;
68214;SDS011;55036;52.138;5.236;2023-03-23T17:04:08;11.75;;;2.70;;
68214;SDS011;55036;52.138;5.236;2023-03-23T17:06:35;14.02;;;2.83;;
68214;SDS011;55036;52.138;5.236;2023-03-23T17:09:01;9.77;;;2.60;;
68214;SDS011;55036;52.138;5.236;2023-03-23T17:11:28;12.65;;;2.72;;
68214;SDS011;55036;52.138;5.236;2023-03-23T17:13:55;15.50;;;2.90;;
68214;SDS011;55036;52.138;5.236;2023-03-23T17:16:22;7.47;;;2.28;;
68214;SDS011;55036;52.138;5.236;2023-03-23T17:18:49;10.00;;;3.00;;
68214;SDS011;55036;52.138;5.236;2023-03-23T17:21:15;14.20;;;2.67;;